Time;durP1;ratioP1;P1;durP2;ratioP2;P2;SDS_P1;SDS_P2;PMS_P1;PMS_P2;Temp;Humidity;BMP_temperature;BMP_pressure;BME280_temperature;BME280_humidity;BME280_pressure;Samples;Min_cycle;Max_cycle;Signal;HPM_P1;HPM_P2
2023/04/25 00:00:33;;;;;;;16.65;11.43;;;;;;;8.20;100.00;99732.41;4961656;29;20050;-96
2023/04/25 00:03:05;;;;;;;17.98;12.23;;;;;;;7.89;100.00;99701.38;4961689;28;20114;-95
2023/04/25 00:05:33;;;;;;;16.85;11.68;;;;;;;7.50;100.00;99632.97;4978101;28;20039;-96
2023/04/25 00:08:04;;;;;;;15.50;11.20;;;;;;;7.69;100.00;99654.91;4978947;28;20062;-95
2023/04/25 00:10:31;;;;;;;;;;;;;;;8.21;100.00;99726.22;4966237;28;20059;-95
2023/04/25 00:13:04;;;;;;;15.35;10.52;;;;;;;8.23;100.00;99730.50;4966053;29;19998;-95
2023/04/25 00:15:32;;;;;;;17.13;11.55;;;;;;;8.28;100.00;99730.28;4950316;28;20043;-95
2023/04/25 00:18:00;;;;;;;14.82;10.40;;;;;;;8.25;100.00;99733.06;4947305;29;20085;-95
2023/04/25 00:20:30;;;;;;;17.48;11.85;;;;;;;7.78;100.00;99672.91;4970203;29;20055;-95
2023/04/25 00:23:00;;;;;;;15.48;11.52;;;;;;;8.01;100.00;99722.78;4938385;29;20043;-96
2023/04/25 00:25:29;;;;;;;17.52;11.00;;;;;;;7.88;100.00;99712.84;4952365;29;20055;-94
2023/04/25 00:27:57;;;;;;;15.40;11.32;;;;;;;7.74;100.00;99692.41;4936252;29;20105;-93
2023/04/25 00:30:26;;;;;;;17.45;12.15;;;;;;;8.01;100.00;99740.38;4969245;29;20063;-95
2023/04/25 00:33:06;;;;;;;18.02;11.80;;;;;;;8.03;100.00;99736.72;4938326;29;20051;-94
2023/04/25 00:35:37;;;;;;;16.00;10.55;;;;;;;7.77;100.00;99702.81;4959181;28;20043;-95
2023/04/25 00:38:12;;;;;;;15.15;10.65;;;;;;;7.97;100.00;99734.38;4957499;29;20043;-95
2023/04/25 00:40:43;;;;;;;15.30;10.63;;;;;;;7.44;100.00;99651.66;4963179;29;20043;-94
2023/04/25 00:43:13;;;;;;;14.50;9.88;;;;;;;7.95;100.00;99733.59;4978983;28;20036;-91
2023/04/25 00:45:43;;;;;;;13.68;10.60;;;;;;;7.58;100.00;99680.88;4962828;28;20039;-94
2023/04/25 00:48:11;;;;;;;13.23;9.57;;;;;;;7.91;100.00;99736.44;4980267;28;20102;-95
2023/04/25 00:50:40;;;;;;;12.55;10.02;;;;;;;7.51;100.00;99674.19;4963078;29;20059;-92
2023/04/25 00:53:09;;;;;;;14.30;10.32;;;;;;;7.24;100.00;99628.91;4945862;29;20051;-94
2023/04/25 00:55:41;;;;;;;15.05;10.20;;;;;;;7.21;100.00;99619.34;4959506;29;20043;-94
2023/04/25 00:58:11;;;;;;;16.55;10.32;;;;;;;7.54;100.00;99672.28;4956314;29;20051;-94
2023/04/25 01:00:38;;;;;;;15.65;10.15;;;;;;;7.63;100.00;99681.53;4958657;29;20047;-94
2023/04/25 01:03:05;;;;;;;14.07;10.20;;;;;;;7.57;100.00;99672.09;4961862;28;20051;-94
2023/04/25 01:05:36;;;;;;;14.38;10.13;;;;;;;7.31;100.00;99625.91;4978247;29;20069;-94
2023/04/25 01:08:04;;;;;;;14.65;9.95;;;;;;;7.57;100.00;99668.63;4964375;29;20059;-92
2023/04/25 01:10:31;;;;;;;17.42;10.85;;;;;;;7.53;100.00;99667.94;4981472;28;20063;-93
2023/04/25 01:12:58;;;;;;;13.57;10.15;;;;;;;7.83;100.00;99718.34;4980821;28;20043;-96
2023/04/25 01:15:27;;;;;;;14.15;10.10;;;;;;;7.49;100.00;99665.50;4964942;28;20047;-95
2023/04/25 01:17:57;;;;;;;13.02;9.75;;;;;;;7.52;100.00;99675.91;4964876;28;20054;-95
2023/04/25 01:20:28;;;;;;;13.20;9.43;;;;;;;7.18;100.00;99616.84;4979996;28;20043;-95
2023/04/25 01:22:55;;;;;;;;;;;;;;;7.70;100.00;99711.94;4981459;28;20050;-94
2023/04/25 01:25:23;;;;;;;11.73;8.00;;;;;;;7.47;100.00;99683.16;4964090;29;19936;-95
2023/04/25 01:27:51;;;;;;;12.90;8.30;;;;;;;7.25;100.00;99663.03;4962391;28;20046;-96
2023/04/25 01:30:19;;;;;;;13.13;8.27;;;;;;;7.31;100.00;99673.31;4980420;28;20039;-95
2023/04/25 01:32:48;;;;;;;10.65;8.55;;;;;;;7.54;100.00;99710.94;4963863;28;20050;-94
2023/04/25 01:35:15;;;;;;;11.57;7.85;;;;;;;7.61;100.00;99725.53;4961433;28;20047;-86
2023/04/25 01:37:46;;;;;;;12.57;8.02;;;;;;;7.56;100.00;99719.59;4945403;29;20099;-94
2023/04/25 01:40:13;;;;;;;12.55;8.43;;;;;;;7.18;100.00;99656.34;4945232;29;20040;-95
2023/04/25 01:42:41;;;;;;;13.32;8.27;;;;;;;7.46;100.00;99723.59;4944520;29;20060;-95
2023/04/25 01:45:10;;;;;;;9.88;7.47;;;;;;;7.43;100.00;99726.34;4951562;28;20050;-96
2023/04/25 01:47:43;;;;;;;10.93;7.50;;;;;;;7.30;100.00;99713.72;4960787;29;20470;-95
2023/04/25 01:50:11;;;;;;;11.80;7.68;;;;;;;7.13;100.00;99697.81;4972085;29;20084;-95
2023/04/25 01:52:43;;;;;;;9.65;7.03;;;;;;;6.97;100.00;99678.34;4957087;29;20062;-95
2023/04/25 01:55:25;;;;;;;8.55;7.18;;;;;;;7.30;100.00;99726.03;4979143;28;20102;-95
2023/04/25 01:58:00;;;;;;;9.80;7.32;;;;;;;7.06;100.00;99700.81;4963241;29;20063;-93
2023/04/25 02:00:30;;;;;;;11.75;7.28;;;;;;;7.27;100.00;99734.06;4957996;29;20051;-94
2023/04/25 02:03:01;;;;;;;11.23;7.38;;;;;;;6.71;100.00;99642.66;4951348;29;20073;-94
2023/04/25 02:05:35;;;;;;;11.48;7.90;;;;;;;7.21;100.00;99719.41;4954148;29;20055;-93
2023/04/25 02:08:07;;;;;;;8.93;7.55;;;;;;;7.34;100.00;99741.66;4950667;29;20054;-94
2023/04/25 02:10:37;;;;;;;9.48;7.35;;;;;;;7.10;100.00;99692.69;4953469;29;20480;-95
2023/04/25 02:13:05;;;;;;;11.23;7.95;;;;;;;7.43;100.00;99728.97;4952974;28;20047;-94
2023/04/25 02:15:33;;;;;;;10.48;8.27;;;;;;;7.50;100.00;99730.44;4960563;29;20069;-94
2023/04/25 02:18:06;;;;;;;9.35;7.47;;;;;;;7.56;100.00;99719.59;4957379;29;20382;-94
2023/04/25 02:20:34;;;;;;;12.52;8.35;;;;;;;7.39;100.00;99708.06;4950902;29;20067;-94
2023/04/25 02:23:00;;;;;;;11.75;8.00;;;;;;;7.30;100.00;99691.81;4934330;29;20051;-94
2023/04/25 02:25:33;;;;;;;12.75;8.77;;;;;;;7.20;100.00;99680.84;4966329;29;20082;-94
2023/04/25 02:28:07;;;;;;;11.75;7.95;;;;;;;7.02;100.00;99664.06;4936517;29;20114;-95
2023/04/25 02:30:43;;;;;;;13.25;8.00;;;;;;;7.00;100.00;99665.91;4966647;28;20051;-94
2023/04/25 02:33:10;;;;;;;10.68;7.85;;;;;;;7.27;100.00;99707.75;4950525;29;20492;-95
2023/04/25 02:35:40;;;;;;;12.60;8.43;;;;;;;6.93;100.00;99655.72;4933744;29;20082;-95
2023/04/25 02:38:13;;;;;;;17.95;9.32;;;;;;;6.65;100.00;99617.44;4970162;29;20058;-94
2023/04/25 02:40:50;;;;;;;16.85;9.73;;;;;;;6.96;100.00;99666.97;4933384;29;20054;-96
2023/04/25 02:43:20;;;;;;;14.15;10.32;;;;;;;6.70;100.00;99612.00;4947425;29;20381;-95
2023/04/25 02:45:49;;;;;;;13.13;9.80;;;;;;;7.29;100.00;99717.28;4947780;29;20043;-95
2023/04/25 02:48:29;;;;;;;13.13;10.55;;;;;;;6.73;100.00;99635.56;4967077;29;20469;-96
2023/04/25 02:51:08;;;;;;;14.80;10.48;;;;;;;6.86;100.00;99654.28;4951046;29;20083;-95
2023/04/25 02:53:36;;;;;;;16.25;10.88;;;;;;;6.84;100.00;99656.97;4966016;29;20508;-94
2023/04/25 02:56:08;;;;;;;15.23;10.30;;;;;;;6.80;100.00;99638.75;4917614;29;20047;-94
2023/04/25 02:58:42;;;;;;;17.23;10.52;;;;;;;7.16;100.00;99702.09;4932708;29;20109;-95
2023/04/25 03:01:23;;;;;;;17.27;10.70;;;;;;;7.06;100.00;99688.50;4948095;28;20043;-95
2023/04/25 03:04:12;;;;;;;18.20;11.52;;;;;;;6.96;100.00;99666.09;4950342;29;20119;-96
2023/04/25 03:10:30;;;;;;;18.50;12.10;;;;;;;7.10;100.00;99692.69;4976899;29;20098;-96
2023/04/25 03:13:10;;;;;;;16.50;10.77;;;;;;;7.27;100.00;99715.63;4959301;29;20074;-95
2023/04/25 03:16:06;;;;;;;17.30;10.05;;;;;;;6.66;100.00;99620.94;4960589;29;20075;-95
2023/04/25 03:18:58;;;;;;;16.80;11.57;;;;;;;7.21;100.00;99716.78;4950175;29;20051;-95
2023/04/25 03:21:30;;;;;;;17.17;11.05;;;;;;;7.19;100.00;99721.25;4960487;29;20106;-95
2023/04/25 03:24:02;;;;;;;17.83;11.45;;;;;;;7.18;100.00;99729.22;4976359;29;20043;-96
2023/04/25 03:26:30;;;;;;;20.20;11.40;;;;;;;6.92;100.00;99680.34;4945417;29;20043;-95
2023/04/25 03:28:57;;;;;;;20.38;11.40;;;;;;;6.78;100.00;99656.38;4960349;29;20039;-94
2023/04/25 03:31:43;;;;;;;18.25;11.40;;;;;;;7.12;100.00;99719.81;4977113;28;20043;-95
2023/04/25 03:34:18;;;;;;;16.55;12.02;;;;;;;6.99;100.00;99697.56;4978582;28;20039;-96
2023/04/25 03:36:52;;;;;;;19.05;11.95;;;;;;;7.11;100.00;99726.00;4958931;29;20035;-95
2023/04/25 03:39:26;;;;;;;19.52;11.18;;;;;;;6.80;100.00;99678.22;4969189;28;20051;-95
2023/04/25 03:42:04;;;;;;;18.42;11.63;;;;;;;7.12;100.00;99732.97;4962152;28;20059;-94
2023/04/25 03:44:53;;;;;;;17.10;11.18;;;;;;;7.03;100.00;99712.31;5207158;23;20056;-95
2023/04/25 03:47:38;;;;;;;18.42;11.07;;;;;;;6.54;100.00;99622.31;5006969;28;20073;-95
2023/04/25 03:50:14;;;;;;;15.65;10.55;;;;;;;7.05;100.00;99707.84;5256268;23;20045;-96
2023/04/25 03:52:54;;;;;;;18.83;10.43;;;;;;;7.10;100.00;99728.69;5059800;28;20084;-94
2023/04/25 03:55:35;;;;;;;21.67;13.15;;;;;;;6.61;100.00;99636.91;5041638;28;20037;-94
2023/04/25 03:58:13;;;;;;;14.93;10.25;;;;;;;6.70;100.00;99651.47;5037609;28;20047;-94
2023/04/25 04:00:53;;;;;;;17.50;10.63;;;;;;;7.13;100.00;99731.19;5040311;28;20046;-93
2023/04/25 04:04:02;;;;;;;18.42;10.63;;;;;;;6.85;100.00;99705.22;5044541;28;20404;-93
2023/04/25 04:07:21;;;;;;;17.45;10.00;;;;;;;7.03;100.00;99743.91;5528592;23;20154;31
2023/04/25 05:01:29;;;;;;;15.90;8.07;;;;;;;6.48;100.00;99761.97;5713116;23;20090;-95
2023/04/25 05:04:19;;;;;;;21.17;8.38;;;;;;;6.82;100.00;99815.84;5019827;28;20034;-95
2023/04/25 05:09:51;;;;;;;19.83;8.70;;;;;;;6.17;100.00;99724.66;5213950;23;20046;-91
2023/04/25 05:15:10;;;;;;;14.32;8.05;;;;;;;6.88;100.00;99826.16;5518974;23;21612;-93
2023/04/25 05:18:00;;;;;;;18.20;8.55;;;;;;;6.34;100.00;99735.38;5490724;23;20127;-93
2023/04/25 05:38:51;;;;;;;19.80;7.72;;;;;;;6.96;100.00;99802.97;5319308;23;21710;-91
2023/04/25 05:41:33;;;;;;;14.82;7.80;;;;;;;6.80;100.00;99746.63;4979682;28;20152;-94
2023/04/25 05:44:23;;;;;;;14.45;7.30;;;;;;;6.70;100.00;99740.91;5206810;23;20086;-93
2023/04/25 05:47:17;;;;;;;17.55;7.70;;;;;;;7.22;100.00;99809.81;4979229;28;20067;-95
2023/04/25 05:49:51;;;;;;;15.68;7.57;;;;;;;7.45;100.00;99857.06;4977983;28;20067;-95
2023/04/25 05:59:04;;;;;;;14.68;6.20;;;;;;;6.56;100.00;99762.53;4993978;23;20043;-96
2023/04/25 06:01:46;;;;;;;17.40;6.50;;;;;;;6.55;100.00;99754.69;4950471;28;20046;-95
2023/04/25 06:04:21;;;;;;;12.68;6.15;;;;;;;6.75;100.00;99761.78;4980010;28;20047;-96
2023/04/25 06:06:49;;;;;;;12.70;6.65;;;;;;;7.56;100.00;99856.59;4977845;28;20063;-95
2023/04/25 06:09:21;;;;;;;11.52;7.13;;;;;;;7.83;100.00;99855.44;4962422;28;20075;-96
2023/04/25 06:14:47;;;;;;;11.52;5.68;;;;;;;8.01;100.00;99849.34;5830582;23;20894;-93
2023/04/25 06:40:11;;;;;;;7.47;4.22;;;;;;;8.63;100.00;99860.56;5659724;23;20077;-91
2023/04/25 06:43:03;;;;;;;13.88;5.07;;;;;;;8.35;100.00;99853.06;5419129;23;20239;-93
2023/04/25 06:46:17;;;;;;;8.63;4.53;;;;;;;8.23;100.00;99849.19;5432409;23;21077;-93
2023/04/25 06:49:13;;;;;;;9.00;4.72;;;;;;;8.27;100.00;99865.75;5288780;23;20026;-95
2023/04/25 06:51:54;;;;;;;9.38;4.63;;;;;;;8.34;100.00;99831.09;5570549;23;20026;-92
2023/04/25 07:45:43;;;;;;;14.48;6.22;;;;;;;8.84;100.00;99842.81;5546399;23;20035;-92
2023/04/25 07:48:38;;;;;;;11.30;5.43;;;;;;;9.43;100.00;99890.94;4965744;29;20023;-92
2023/04/25 07:51:42;;;;;;;11.75;5.68;;;;;;;9.44;100.00;99831.84;4977172;29;20089;-93
2023/04/25 07:54:25;;;;;;;11.65;5.88;;;;;;;9.32;100.00;99798.13;4979078;28;20075;-93
2023/04/25 07:57:28;;;;;;;17.33;5.40;;;;;;;10.05;100.00;99905.38;5651716;23;21416;-94
2023/04/25 08:08:38;;;;;;;11.70;5.07;;;;;;;10.55;91.05;99902.66;5952104;23;20022;-93
2023/04/25 08:41:49;;;;;;;6.07;3.73;;;;;;;10.42;81.82;99943.97;6052198;23;20028;31
2023/04/25 08:44:31;;;;;;;9.55;3.90;;;;;;;10.78;79.31;99945.56;5047359;23;20077;-94
2023/04/25 08:47:17;;;;;;;7.15;3.70;;;;;;;11.08;75.39;99948.31;4981569;28;20042;-96
2023/04/25 08:49:55;;;;;;;10.45;4.53;;;;;;;11.07;74.49;99920.09;5581939;23;20036;-94
2023/04/25 08:58:26;;;;;;;7.65;3.85;;;;;;;10.93;69.25;99906.78;4961127;28;20044;-95
2023/04/25 09:01:16;;;;;;;6.43;4.05;;;;;;;11.11;69.58;99945.50;4961205;28;20071;-95
2023/04/25 09:03:52;;;;;;;6.80;4.47;;;;;;;11.11;71.26;99926.94;4976749;28;20046;-95
2023/04/25 09:06:24;;;;;;;9.50;3.80;;;;;;;10.74;69.64;99888.41;4989635;28;20066;-94
2023/04/25 09:08:55;;;;;;;12.73;4.35;;;;;;;10.97;69.88;99975.41;4978164;28;20051;-95
2023/04/25 09:11:39;;;;;;;8.57;4.00;;;;;;;11.08;71.47;99982.75;5003016;23;20048;-94
2023/04/25 09:25:09;;;;;;;7.33;4.50;;;;;;;11.19;63.02;99988.31;6247352;21;2303645;-93
2023/04/25 09:28:04;;;;;;;7.68;4.38;;;;;;;10.80;61.36;99952.50;6341362;22;20437;-94
2023/04/25 09:30:40;;;;;;;10.55;4.75;;;;;;;10.87;61.89;99979.50;6292861;22;20019;-95
2023/04/25 09:33:59;;;;;;;7.88;4.90;;;;;;;10.89;61.44;99975.81;6340591;22;20007;-93
2023/04/25 09:36:35;;;;;;;6.90;4.57;;;;;;;11.04;59.50;100010.34;6316655;22;20019;-93
2023/04/25 09:39:20;;;;;;;8.52;4.57;;;;;;;10.71;61.37;99970.66;6340230;22;20018;-94
2023/04/25 09:42:05;;;;;;;10.18;5.30;;;;;;;10.67;60.90;99951.47;6318189;22;20074;-94
2023/04/25 09:44:33;;;;;;;8.18;4.25;;;;;;;11.19;59.69;100017.47;6341151;22;20011;-94
2023/04/25 09:47:17;;;;;;;8.88;4.28;;;;;;;11.34;59.50;100013.09;6292638;22;20063;-95
2023/04/25 09:49:50;;;;;;;8.18;4.55;;;;;;;11.87;59.53;100013.59;6343352;22;20007;-95
2023/04/25 09:52:33;;;;;;;7.32;4.35;;;;;;;11.56;54.58;99965.88;6338323;22;20019;-94
2023/04/25 09:55:05;;;;;;;7.38;4.47;;;;;;;11.74;55.32;100024.97;6342277;22;20022;-94
2023/04/25 09:57:43;;;;;;;8.40;4.15;;;;;;;11.45;55.40;99971.81;6316564;22;20023;-94
2023/04/25 10:00:18;;;;;;;5.55;4.05;;;;;;;11.95;54.68;100021.13;6292479;22;20018;-94
2023/04/25 10:03:16;;;;;;;7.20;3.72;;;;;;;11.59;52.98;99965.72;6237687;22;20031;-94
2023/04/25 10:05:52;;;;;;;5.45;3.40;;;;;;;11.73;53.78;100002.03;6279179;22;20035;-94
2023/04/25 10:08:26;;;;;;;6.47;3.75;;;;;;;12.19;54.11;100032.06;6232246;22;20050;-94
2023/04/25 10:11:26;;;;;;;5.72;4.00;;;;;;;12.47;51.47;100032.13;6278131;22;20015;-95
2023/04/25 10:14:23;;;;;;;6.00;3.85;;;;;;;12.23;50.47;99978.72;6255276;23;20159;-95
2023/04/25 10:17:12;;;;;;;13.90;8.68;;;;;;;12.49;52.78;100026.72;6248794;23;20075;-94
2023/04/25 10:19:43;;;;;;;6.22;4.25;;;;;;;12.13;52.26;100004.06;6272506;23;20032;-93
2023/04/25 10:22:42;;;;;;;8.88;4.28;;;;;;;11.71;53.90;100001.25;6150849;23;20024;-95
2023/04/25 10:25:30;;;;;;;6.78;4.10;;;;;;;11.27;53.90;99959.59;6140484;23;20032;-94
2023/04/25 10:28:13;;;;;;;8.15;4.53;;;;;;;11.27;54.68;100006.44;6140134;23;20018;-94
2023/04/25 10:31:08;;;;;;;7.57;4.28;;;;;;;11.25;56.77;100009.19;6160026;23;20427;-93
2023/04/25 10:34:05;;;;;;;7.82;4.25;;;;;;;11.44;56.91;100054.94;6209486;23;20028;-94
2023/04/25 10:37:03;;;;;;;10.40;4.38;;;;;;;11.45;61.08;100063.75;6210289;23;20040;-94
2023/04/25 10:39:42;;;;;;;6.07;4.32;;;;;;;10.99;64.10;99970.03;6204898;22;20020;-95
2023/04/25 10:42:32;;;;;;;9.80;5.30;;;;;;;10.97;64.00;99967.47;6289300;22;20008;-94
2023/04/25 10:45:14;;;;;;;6.80;4.60;;;;;;;11.52;64.95;100073.06;6331152;22;20023;-95
2023/04/25 10:47:47;;;;;;;9.45;4.70;;;;;;;11.03;64.44;100041.28;6259407;22;20007;-94
2023/04/25 10:50:21;;;;;;;5.10;3.88;;;;;;;11.03;65.76;100062.50;6309639;22;20034;-95
2023/04/25 10:53:15;;;;;;;10.77;4.95;;;;;;;10.71;66.96;100020.97;6287288;22;20015;-92
2023/04/25 10:55:56;;;;;;;7.82;4.80;;;;;;;10.50;67.38;99978.84;6335660;22;20007;-94
2023/04/25 10:58:30;;;;;;;7.93;4.45;;;;;;;10.76;66.50;100043.66;6308278;22;20007;-94
2023/04/25 11:01:06;;;;;;;8.95;4.68;;;;;;;10.48;67.16;100008.97;6308621;22;20007;-94
2023/04/25 11:03:45;;;;;;;9.38;4.50;;;;;;;11.00;64.97;100083.03;6305873;22;20034;-94
2023/04/25 11:06:51;;;;;;;8.70;4.10;;;;;;;10.98;63.88;100061.06;6283768;22;20007;-95
2023/04/25 11:09:42;;;;;;;5.28;4.00;;;;;;;10.98;62.12;100035.41;6312451;22;20015;-95
2023/04/25 11:12:47;;;;;;;9.50;4.07;;;;;;;11.21;61.83;100076.53;6235285;22;20012;-95
2023/04/25 11:15:18;;;;;;;7.38;4.05;;;;;;;11.19;62.18;100068.66;6235129;23;20004;-95
2023/04/25 11:18:24;;;;;;;8.45;4.07;;;;;;;10.70;62.43;100001.63;6241423;23;20040;-94
2023/04/25 11:21:10;;;;;;;5.82;3.10;;;;;;;10.83;61.90;100060.94;6235814;23;20015;-91
2023/04/25 11:23:49;;;;;;;6.78;4.03;;;;;;;10.89;61.55;100089.72;6190452;23;20474;-94
2023/04/25 11:27:07;;;;;;;7.00;3.53;;;;;;;10.47;61.77;100026.66;6206219;23;20027;-94
2023/04/25 11:40:46;;;;;;;6.63;3.08;;;;;;;11.03;58.09;99998.03;6027507;22;6564977;-94
2023/04/25 11:43:33;;;;;;;6.80;3.53;;;;;;;11.57;57.08;100036.53;6237732;22;20007;-94
2023/04/25 11:46:20;;;;;;;6.32;3.17;;;;;;;12.08;53.89;100093.75;6233826;22;20022;-94
2023/04/25 11:49:05;;;;;;;6.78;3.53;;;;;;;12.08;54.46;100100.88;6280004;22;20071;-95
2023/04/25 11:51:49;;;;;;;;;;;;;;;12.04;52.41;100100.19;6258911;22;20062;-94
2023/04/25 11:55:02;;;;;;;10.82;3.80;;;;;;;11.70;53.07;100042.84;6261696;22;19911;-96
2023/04/25 11:57:50;;;;;;;7.43;3.53;;;;;;;11.24;51.70;100040.13;6224861;23;20046;-94
2023/04/25 12:00:34;;;;;;;6.45;3.05;;;;;;;11.18;52.36;100098.75;6226088;23;20016;-94
2023/04/25 12:03:18;;;;;;;6.72;3.03;;;;;;;11.17;53.05;100109.47;6248555;23;20023;-92
2023/04/25 12:06:04;;;;;;;8.90;3.50;;;;;;;11.13;52.87;100116.72;6256678;23;20011;-94
2023/04/25 12:09:04;;;;;;;6.55;3.60;;;;;;;11.09;54.25;100116.97;6237464;23;20022;-94
2023/04/25 12:11:47;;;;;;;7.80;3.70;;;;;;;10.87;54.98;100080.16;6255437;23;20012;-95
2023/04/25 12:14:35;;;;;;;7.97;3.70;;;;;;;10.93;52.81;100084.28;6253226;22;20020;-95
2023/04/25 12:17:17;;;;;;;9.57;3.45;;;;;;;10.97;53.07;100107.03;6253066;23;20038;-94
2023/04/25 12:19:48;;;;;;;9.13;3.33;;;;;;;11.00;53.42;100125.41;6247042;23;20019;-93
2023/04/25 12:23:11;;;;;;;6.90;3.35;;;;;;;10.81;52.90;100107.84;6239511;23;20035;-95
2023/04/25 12:25:46;;;;;;;6.93;3.25;;;;;;;10.61;53.68;100091.25;6270148;23;20019;-95
2023/04/25 12:29:03;;;;;;;7.93;3.33;;;;;;;10.32;54.67;100042.47;6269686;23;20030;-94
2023/04/25 12:32:07;;;;;;;8.82;3.80;;;;;;;10.51;54.80;100069.72;6269888;23;20047;-93
2023/04/25 12:34:49;;;;;;;9.27;4.65;;;;;;;10.57;55.23;100093.22;6252519;23;20019;-93
2023/04/25 12:37:18;;;;;;;9.60;3.70;;;;;;;10.62;56.75;100103.56;6264299;23;20034;-93
2023/04/25 12:39:54;;;;;;;10.60;4.75;;;;;;;10.72;55.98;100076.53;6242647;23;20019;-94
2023/04/25 12:42:35;;;;;;;8.10;3.42;;;;;;;11.21;55.89;100134.84;6263096;23;20072;-95
2023/04/25 12:45:14;;;;;;;8.45;3.85;;;;;;;11.35;55.01;100134.09;6216452;23;20016;-93
2023/04/25 12:47:58;;;;;;;7.38;3.63;;;;;;;11.32;54.51;100098.03;6217446;23;20020;-95
2023/04/25 12:51:24;;;;;;;6.65;3.25;;;;;;;11.92;52.22;100130.06;6094350;23;20014;-95
2023/04/25 12:54:07;;;;;;;11.27;4.05;;;;;;;11.45;52.05;100040.75;6111111;23;20024;-94
2023/04/25 12:56:57;;;;;;;9.35;4.68;;;;;;;12.38;51.61;100124.78;6113693;23;20073;-94
2023/04/25 12:59:39;;;;;;;7.25;3.65;;;;;;;12.42;49.98;100137.78;6093995;23;20028;-94
2023/04/25 13:02:21;;;;;;;6.97;3.47;;;;;;;12.32;50.75;100138.38;6117971;23;20014;-95
2023/04/25 13:05:00;;;;;;;8.77;3.42;;;;;;;12.27;49.79;100142.19;6118024;23;20033;-93
2023/04/25 13:07:47;;;;;;;8.40;3.58;;;;;;;11.91;48.06;100085.91;6079022;23;20038;-95
2023/04/25 13:10:29;;;;;;;7.43;3.45;;;;;;;12.19;49.06;100139.09;6116093;23;20022;-95
2023/04/25 13:13:02;;;;;;;10.10;4.03;;;;;;;11.99;50.00;100088.97;6091857;23;20022;-93
2023/04/25 13:15:53;;;;;;;8.63;3.30;;;;;;;12.67;49.80;100129.22;6179392;23;20441;-93
2023/04/25 13:18:56;;;;;;;6.07;3.47;;;;;;;12.90;48.09;100131.34;6240227;23;20008;-95
2023/04/25 13:21:49;;;;;;;6.78;3.55;;;;;;;12.76;46.38;100130.44;6247031;23;20103;-94
2023/04/25 13:24:28;;;;;;;8.40;3.90;;;;;;;11.96;47.04;100062.63;6239048;23;20072;-95
2023/04/25 13:27:16;;;;;;;8.07;4.15;;;;;;;12.18;48.22;100140.03;6239571;23;20064;-94
2023/04/25 13:30:14;;;;;;;7.22;3.65;;;;;;;12.22;47.51;100096.47;6263109;23;20020;-94
2023/04/25 13:33:02;;;;;;;9.53;3.43;;;;;;;12.63;47.06;100066.56;6241207;23;20429;-94
2023/04/25 13:35:46;;;;;;;9.82;4.05;;;;;;;12.83;45.32;100108.75;6226348;23;20016;-94
2023/04/25 13:38:30;;;;;;;8.68;3.70;;;;;;;12.51;46.27;100104.50;6266182;23;20012;-93
2023/04/25 13:41:18;;;;;;;11.82;4.00;;;;;;;12.28;46.44;100079.28;6242929;23;20040;-94
2023/04/25 13:44:12;;;;;;;9.27;4.40;;;;;;;12.40;46.62;100131.72;6254282;22;20028;-94
2023/04/25 13:50:42;;;;;;;7.88;4.00;;;;;;;12.03;47.92;100148.03;6197772;23;20040;-94
2023/04/25 13:53:21;;;;;;;7.72;3.47;;;;;;;12.07;48.51;100147.78;6307056;22;20019;-95
2023/04/25 13:56:13;;;;;;;8.02;3.80;;;;;;;12.00;48.62;100134.94;6167072;23;20151;-94
2023/04/25 13:59:02;;;;;;;8.63;3.90;;;;;;;12.08;48.01;100153.94;6215097;23;20012;-95
2023/04/25 14:01:50;;;;;;;9.60;3.97;;;;;;;12.12;48.27;100156.31;6193069;23;20027;-94
2023/04/25 14:08:41;;;;;;;9.02;3.30;;;;;;;12.40;48.18;100152.94;6298966;22;20046;-95
2023/04/25 14:11:20;;;;;;;7.70;3.28;;;;;;;12.37;46.17;100149.59;6278351;22;20012;-94
2023/04/25 14:14:04;;;;;;;8.20;3.30;;;;;;;12.30;47.71;100154.41;6276390;22;20039;-94
2023/04/25 14:16:50;;;;;;;8.30;3.58;;;;;;;12.14;47.44;100105.78;6276480;22;20024;-93
2023/04/25 14:19:45;;;;;;;7.80;3.00;;;;;;;12.48;45.93;100160.44;6245474;22;20025;-95
2023/04/25 14:26:44;;;;;;;8.82;3.78;;;;;;;12.41;45.71;100162.63;6316295;22;20041;-96
2023/04/25 14:29:25;;;;;;;8.13;2.90;;;;;;;12.12;45.86;100113.03;6295971;22;20012;-94
2023/04/25 14:31:58;;;;;;;5.97;2.50;;;;;;;11.69;44.02;100074.75;6324341;22;20019;-95
2023/04/25 14:34:26;;;;;;;3.97;2.30;;;;;;;11.83;44.95;100136.75;6299426;22;20023;-93
2023/04/25 14:37:00;;;;;;;6.55;2.35;;;;;;;11.35;45.31;100076.63;6248440;22;20018;-94
2023/04/25 14:39:50;;;;;;;9.25;2.15;;;;;;;11.62;46.17;100140.56;6281395;22;20051;-94
2023/04/25 14:45:32;;;;;;;4.65;2.25;;;;;;;11.78;45.64;100172.44;6310182;22;20019;-93
2023/04/25 14:48:36;;;;;;;3.03;2.05;;;;;;;11.35;43.55;100128.81;6331821;22;20019;-93
2023/04/25 14:51:18;;;;;;;4.15;2.58;;;;;;;11.58;44.99;100176.16;6328679;22;20070;-94
2023/04/25 14:53:47;;;;;;;4.03;2.08;;;;;;;11.00;44.74;100104.22;6305708;22;20014;-93
2023/04/25 14:56:18;;;;;;;6.65;2.55;;;;;;;11.45;46.11;100183.91;6281990;22;20019;-95
2023/04/25 14:58:51;;;;;;;9.02;2.53;;;;;;;11.24;45.49;100146.16;6255884;22;20007;-94
2023/04/25 15:01:42;;;;;;;6.45;2.63;;;;;;;11.49;45.79;100180.13;6309813;22;20049;-94
2023/04/25 15:04:18;;;;;;;4.65;2.10;;;;;;;11.64;45.94;100185.56;6300323;22;20011;-94
2023/04/25 15:07:13;;;;;;;9.60;2.40;;;;;;;11.68;46.41;100169.41;6334114;22;20003;-95
2023/04/25 15:09:53;;;;;;;6.00;2.55;;;;;;;11.86;46.42;100186.97;6306463;22;20019;-94
2023/04/25 15:12:35;;;;;;;5.07;2.40;;;;;;;11.91;45.69;100198.22;6264670;22;20051;-94
2023/04/25 15:15:34;;;;;;;4.43;2.10;;;;;;;11.78;45.31;100197.19;6334391;22;20412;-95
2023/04/25 15:18:44;;;;;;;5.97;2.40;;;;;;;11.59;46.29;100183.16;6308882;22;20008;-93
2023/04/25 15:22:02;;;;;;;3.47;2.17;;;;;;;11.69;46.25;100205.59;6260945;22;20691;-92
2023/04/25 15:28:50;;;;;;;8.82;2.88;;;;;;;11.33;48.50;100178.44;6201252;23;20019;-94
2023/04/25 15:31:41;;;;;;;6.00;2.70;;;;;;;11.47;48.58;100160.84;6182095;23;20040;-92
2023/04/25 15:34:23;;;;;;;8.55;2.40;;;;;;;11.57;47.82;100164.69;6163888;23;20005;-93
2023/04/25 15:37:03;;;;;;;;;;;;;;;11.69;48.32;100197.63;6183851;23;20055;-93
2023/04/25 15:40:11;;;;;;;9.80;2.80;;;;;;;11.36;48.46;100181.75;6186746;23;19927;-93
2023/04/25 15:42:54;;;;;;;6.60;2.10;;;;;;;11.23;48.09;100175.38;6252586;22;20457;-94
2023/04/25 15:45:31;;;;;;;5.15;2.63;;;;;;;11.35;48.26;100173.88;6307681;22;20022;-95
2023/04/25 15:48:17;;;;;;;8.15;2.50;;;;;;;11.66;48.27;100199.59;6311130;22;20045;-94
2023/04/25 15:51:07;;;;;;;7.85;2.10;;;;;;;11.25;47.87;100141.72;6214225;22;21244;-92
2023/04/25 15:54:07;;;;;;;4.80;3.10;;;;;;;11.19;47.92;100140.22;6240626;23;20040;-93
2023/04/25 15:57:12;;;;;;;5.30;2.00;;;;;;;11.62;44.66;100203.38;6266862;22;20011;-93
2023/04/25 16:00:40;;;;;;;8.82;2.40;;;;;;;11.70;45.00;100198.50;6271610;22;20024;-95
2023/04/25 16:13:02;;;;;;;6.15;2.10;;;;;;;11.89;43.04;100170.03;6324954;22;20019;-93
2023/04/25 16:15:56;;;;;;;5.07;2.17;;;;;;;11.90;43.67;100187.69;6330272;22;20019;-94
2023/04/25 16:18:37;;;;;;;;;;;;;;;11.90;43.19;100198.28;6275244;22;20043;-92
2023/04/25 16:21:15;;;;;;;5.35;1.80;;;;;;;11.71;42.87;100201.06;6266103;22;20320;-94
2023/04/25 16:23:57;;;;;;;6.40;2.10;;;;;;;11.41;44.32;100147.03;6251734;22;20012;-96
2023/04/25 16:26:51;;;;;;;6.75;2.25;;;;;;;11.67;43.86;100180.94;6273452;22;20015;-92
2023/04/25 16:29:38;;;;;;;8.52;3.20;;;;;;;11.90;44.04;100206.25;6253154;22;20042;-93
2023/04/25 16:32:27;;;;;;;7.15;1.80;;;;;;;11.79;44.12;100213.94;6266607;22;20011;-94
2023/04/25 16:35:18;;;;;;;6.07;2.25;;;;;;;11.67;44.50;100212.78;6272063;22;20020;-94
2023/04/25 16:38:20;;;;;;;5.78;2.05;;;;;;;11.59;44.64;100223.81;6273200;22;20034;-94
2023/04/25 16:41:01;;;;;;;5.45;2.33;;;;;;;11.44;44.68;100214.03;6251755;22;20016;-94
2023/04/25 16:43:31;;;;;;;5.03;1.80;;;;;;;11.10;45.04;100163.72;6273448;22;20012;-93
2023/04/25 16:46:25;;;;;;;6.03;2.55;;;;;;;10.86;46.11;100161.41;6264084;22;20016;-95
2023/04/25 16:49:11;;;;;;;8.25;2.03;;;;;;;10.93;46.40;100187.59;6272241;22;20066;-94